sensor_id;sensor_type;location;lat;lon;timestamp;temperature;humidity
7163;DHT22;3623;47.098;15.446;2023-07-29T00:01:59;18.90;99.90
7163;DHT22;3623;47.098;15.446;2023-07-29T00:04:26;18.80;99.90
7163;DHT22;3623;47.098;15.446;2023-07-29T00:06:53;18.80;99.90
7163;DHT22;3623;47.098;15.446;2023-07-29T00:09:22;18.90;99.90
7163;DHT22;3623;47.098;15.446;2023-07-29T00:11:49;19.10;99.90
7163;DHT22;3623;47.098;15.446;2023-07-29T00:14:16;18.90;99.90
7163;DHT22;3623;47.098;15.446;2023-07-29T00:16:44;18.80;99.90
7163;DHT22;3623;47.098;15.446;2023-07-29T00:19:11;18.80;99.90
7163;DHT22;3623;47.098;15.446;2023-07-29T00:21:38;18.70;99.90
7163;DHT22;3623;47.098;15.446;2023-07-29T00:24:06;18.70;99.90
7163;DHT22;3623;47.098;15.446;2023-07-29T00:26:35;18.70;99.90
7163;DHT22;3623;47.098;15.446;2023-07-29T00:29:02;18.70;99.90
7163;DHT22;3623;47.098;15.446;2023-07-29T00:31:29;18.60;99.90
7163;DHT22;3623;47.098;15.446;2023-07-29T00:33:56;18.50;99.90
7163;DHT22;3623;47.098;15.446;2023-07-29T00:36:24;18.50;99.90
7163;DHT22;3623;47.098;15.446;2023-07-29T00:38:51;18.60;99.90
7163;DHT22;3623;47.098;15.446;2023-07-29T00:41:21;18.50;99.90
7163;DHT22;3623;47.098;15.446;2023-07-29T00:43:50;18.40;99.90
7163;DHT22;3623;47.098;15.446;2023-07-29T00:46:18;18.40;99.90
7163;DHT22;3623;47.098;15.446;2023-07-29T00:48:47;18.30;99.90
7163;DHT22;3623;47.098;15.446;2023-07-29T00:51:14;18.30;99.90
7163;DHT22;3623;47.098;15.446;2023-07-29T00:53:41;18.30;99.90
7163;DHT22;3623;47.098;15.446;2023-07-29T00:56:08;18.30;99.90
7163;DHT22;3623;47.098;15.446;2023-07-29T00:58:35;18.30;99.90
7163;DHT22;3623;47.098;15.446;2023-07-29T01:01:05;18.40;99.90
7163;DHT22;3623;47.098;15.446;2023-07-29T01:03:32;18.30;99.90
7163;DHT22;3623;47.098;15.446;2023-07-29T01:06:09;18.20;99.90
7163;DHT22;3623;47.098;15.446;2023-07-29T01:08:45;18.20;99.90
7163;DHT22;3623;47.098;15.446;2023-07-29T01:11:22;18.10;99.90
7163;DHT22;3623;47.098;15.446;2023-07-29T01:14:03;18.20;99.90
7163;DHT22;3623;47.098;15.446;2023-07-29T01:16:38;18.10;99.90
7163;DHT22;3623;47.098;15.446;2023-07-29T01:19:06;18.10;99.90
7163;DHT22;3623;47.098;15.446;2023-07-29T01:21:36;18.20;99.90
7163;DHT22;3623;47.098;15.446;2023-07-29T01:24:05;18.00;99.90
7163;DHT22;3623;47.098;15.446;2023-07-29T01:26:32;17.90;99.90
7163;DHT22;3623;47.098;15.446;2023-07-29T01:28:59;18.00;99.90
7163;DHT22;3623;47.098;15.446;2023-07-29T01:31:31;17.80;99.90
7163;DHT22;3623;47.098;15.446;2023-07-29T01:34:06;17.70;99.90
7163;DHT22;3623;47.098;15.446;2023-07-29T01:36:37;17.60;99.90
7163;DHT22;3623;47.098;15.446;2023-07-29T01:39:10;17.60;99.90
7163;DHT22;3623;47.098;15.446;2023-07-29T01:41:39;17.60;99.90
7163;DHT22;3623;47.098;15.446;2023-07-29T01:44:06;17.60;99.90
7163;DHT22;3623;47.098;15.446;2023-07-29T01:46:34;17.50;99.90
7163;DHT22;3623;47.098;15.446;2023-07-29T01:49:01;17.50;99.90
7163;DHT22;3623;47.098;15.446;2023-07-29T01:51:28;17.40;99.90
7163;DHT22;3623;47.098;15.446;2023-07-29T01:53:55;17.40;99.90
7163;DHT22;3623;47.098;15.446;2023-07-29T01:56:26;17.50;99.90
7163;DHT22;3623;47.098;15.446;2023-07-29T01:58:53;17.50;99.90
7163;DHT22;3623;47.098;15.446;2023-07-29T02:01:20;17.40;99.90
7163;DHT22;3623;47.098;15.446;2023-07-29T02:03:47;17.40;99.90
7163;DHT22;3623;47.098;15.446;2023-07-29T02:06:20;17.30;99.90
7163;DHT22;3623;47.098;15.446;2023-07-29T02:08:47;17.80;99.90
7163;DHT22;3623;47.098;15.446;2023-07-29T02:11:14;17.20;99.90
7163;DHT22;3623;47.098;15.446;2023-07-29T02:13:43;17.10;99.90
7163;DHT22;3623;47.098;15.446;2023-07-29T02:16:13;17.20;99.90
7163;DHT22;3623;47.098;15.446;2023-07-29T02:18:40;17.30;99.90
7163;DHT22;3623;47.098;15.446;2023-07-29T02:21:07;17.30;99.90
7163;DHT22;3623;47.098;15.446;2023-07-29T02:23:35;17.20;99.90
7163;DHT22;3623;47.098;15.446;2023-07-29T02:26:02;17.20;99.90
7163;DHT22;3623;47.098;15.446;2023-07-29T02:28:29;17.10;99.90
7163;DHT22;3623;47.098;15.446;2023-07-29T02:31:14;17.20;99.90
7163;DHT22;3623;47.098;15.446;2023-07-29T02:33:42;17.30;99.90
7163;DHT22;3623;47.098;15.446;2023-07-29T02:36:12;17.20;99.90
7163;DHT22;3623;47.098;15.446;2023-07-29T02:38:40;17.20;99.90
7163;DHT22;3623;47.098;15.446;2023-07-29T02:41:07;17.30;99.90
7163;DHT22;3623;47.098;15.446;2023-07-29T02:43:35;17.30;99.90
7163;DHT22;3623;47.098;15.446;2023-07-29T02:46:03;17.30;99.90
7163;DHT22;3623;47.098;15.446;2023-07-29T02:48:32;17.30;99.90
7163;DHT22;3623;47.098;15.446;2023-07-29T02:50:59;17.40;99.90
7163;DHT22;3623;47.098;15.446;2023-07-29T02:53:26;17.30;99.90
7163;DHT22;3623;47.098;15.446;2023-07-29T02:55:53;17.30;99.90
7163;DHT22;3623;47.098;15.446;2023-07-29T02:58:20;17.30;99.90
7163;DHT22;3623;47.098;15.446;2023-07-29T03:00:47;17.40;99.90
7163;DHT22;3623;47.098;15.446;2023-07-29T03:03:14;17.40;99.90
7163;DHT22;3623;47.098;15.446;2023-07-29T03:05:43;17.40;99.90
7163;DHT22;3623;47.098;15.446;2023-07-29T03:08:10;17.40;99.90
7163;DHT22;3623;47.098;15.446;2023-07-29T03:10:38;17.40;99.90
7163;DHT22;3623;47.098;15.446;2023-07-29T03:13:06;17.40;99.90
7163;DHT22;3623;47.098;15.446;2023-07-29T03:15:33;17.40;99.90
7163;DHT22;3623;47.098;15.446;2023-07-29T03:18:00;17.40;99.90
7163;DHT22;3623;47.098;15.446;2023-07-29T03:20:28;17.40;99.90
7163;DHT22;3623;47.098;15.446;2023-07-29T03:22:56;17.40;99.90
7163;DHT22;3623;47.098;15.446;2023-07-29T03:25:23;17.40;99.90
7163;DHT22;3623;47.098;15.446;2023-07-29T03:27:51;17.30;99.90
7163;DHT22;3623;47.098;15.446;2023-07-29T03:30:19;17.50;99.90
7163;DHT22;3623;47.098;15.446;2023-07-29T03:32:48;17.60;99.90
7163;DHT22;3623;47.098;15.446;2023-07-29T03:35:16;17.40;99.90
7163;DHT22;3623;47.098;15.446;2023-07-29T03:37:43;17.50;99.90
7163;DHT22;3623;47.098;15.446;2023-07-29T03:40:12;17.40;99.90
7163;DHT22;3623;47.098;15.446;2023-07-29T03:42:39;17.40;99.90
7163;DHT22;3623;47.098;15.446;2023-07-29T03:45:07;17.50;99.90
7163;DHT22;3623;47.098;15.446;2023-07-29T03:47:35;17.40;99.90
7163;DHT22;3623;47.098;15.446;2023-07-29T03:50:02;17.60;99.90
7163;DHT22;3623;47.098;15.446;2023-07-29T03:52:30;17.40;99.90
7163;DHT22;3623;47.098;15.446;2023-07-29T03:54:57;17.50;99.90
7163;DHT22;3623;47.098;15.446;2023-07-29T03:57:25;17.50;99.90
7163;DHT22;3623;47.098;15.446;2023-07-29T03:59:53;17.70;99.90
7163;DHT22;3623;47.098;15.446;2023-07-29T04:02:20;17.80;99.90
7163;DHT22;3623;47.098;15.446;2023-07-29T04:04:47;17.50;99.90
7163;DHT22;3623;47.098;15.446;2023-07-29T04:07:14;17.50;99.90
7163;DHT22;3623;47.098;15.446;2023-07-29T04:09:42;17.50;99.90
7163;DHT22;3623;47.098;15.446;2023-07-29T04:12:10;17.60;99.90
7163;DHT22;3623;47.098;15.446;2023-07-29T04:14:38;17.70;99.90
7163;DHT22;3623;47.098;15.446;2023-07-29T04:17:06;17.60;99.90
7163;DHT22;3623;47.098;15.446;2023-07-29T04:19:33;17.60;99.90
7163;DHT22;3623;47.098;15.446;2023-07-29T04:22:00;17.60;99.90
7163;DHT22;3623;47.098;15.446;2023-07-29T04:24:28;17.60;99.90
7163;DHT22;3623;47.098;15.446;2023-07-29T04:26:55;17.60;99.90
7163;DHT22;3623;47.098;15.446;2023-07-29T04:29:22;17.70;99.90
7163;DHT22;3623;47.098;15.446;2023-07-29T04:31:51;17.70;99.90
7163;DHT22;3623;47.098;15.446;2023-07-29T04:34:18;17.80;99.90
7163;DHT22;3623;47.098;15.446;2023-07-29T04:36:46;17.70;99.90
7163;DHT22;3623;47.098;15.446;2023-07-29T04:39:13;17.90;99.90
7163;DHT22;3623;47.098;15.446;2023-07-29T04:41:40;17.60;99.90
7163;DHT22;3623;47.098;15.446;2023-07-29T04:44:07;17.70;99.90
7163;DHT22;3623;47.098;15.446;2023-07-29T04:46:35;17.90;99.90
7163;DHT22;3623;47.098;15.446;2023-07-29T04:49:04;17.80;99.90
7163;DHT22;3623;47.098;15.446;2023-07-29T04:51:32;17.80;99.90
7163;DHT22;3623;47.098;15.446;2023-07-29T04:53:59;17.90;99.90
7163;DHT22;3623;47.098;15.446;2023-07-29T04:56:26;18.00;99.90
7163;DHT22;3623;47.098;15.446;2023-07-29T04:58:54;17.90;99.90
7163;DHT22;3623;47.098;15.446;2023-07-29T05:01:21;18.00;99.90
7163;DHT22;3623;47.098;15.446;2023-07-29T05:03:48;18.10;99.90
7163;DHT22;3623;47.098;15.446;2023-07-29T05:06:16;18.10;99.90
7163;DHT22;3623;47.098;15.446;2023-07-29T05:08:44;18.30;99.90
7163;DHT22;3623;47.098;15.446;2023-07-29T05:11:11;18.10;99.90
7163;DHT22;3623;47.098;15.446;2023-07-29T05:13:38;18.40;99.90
7163;DHT22;3623;47.098;15.446;2023-07-29T05:16:05;18.20;99.90
7163;DHT22;3623;47.098;15.446;2023-07-29T05:18:32;18.20;99.90
7163;DHT22;3623;47.098;15.446;2023-07-29T05:20:59;18.20;99.90
7163;DHT22;3623;47.098;15.446;2023-07-29T05:23:28;18.20;99.90
7163;DHT22;3623;47.098;15.446;2023-07-29T05:25:55;18.20;99.90
7163;DHT22;3623;47.098;15.446;2023-07-29T05:28:22;18.10;99.90
7163;DHT22;3623;47.098;15.446;2023-07-29T05:30:49;18.10;99.90
7163;DHT22;3623;47.098;15.446;2023-07-29T05:33:16;18.30;99.90
7163;DHT22;3623;47.098;15.446;2023-07-29T05:35:43;18.00;99.90
7163;DHT22;3623;47.098;15.446;2023-07-29T05:38:13;18.10;99.90
7163;DHT22;3623;47.098;15.446;2023-07-29T05:40:41;18.10;99.90
7163;DHT22;3623;47.098;15.446;2023-07-29T05:43:08;18.00;99.90
7163;DHT22;3623;47.098;15.446;2023-07-29T05:45:36;18.00;99.90
7163;DHT22;3623;47.098;15.446;2023-07-29T05:48:04;18.00;99.90
7163;DHT22;3623;47.098;15.446;2023-07-29T05:50:33;18.00;99.90
7163;DHT22;3623;47.098;15.446;2023-07-29T05:53:00;18.00;99.90
7163;DHT22;3623;47.098;15.446;2023-07-29T05:55:27;18.00;99.90
7163;DHT22;3623;47.098;15.446;2023-07-29T05:57:56;18.00;99.90
7163;DHT22;3623;47.098;15.446;2023-07-29T06:00:23;18.00;99.90
7163;DHT22;3623;47.098;15.446;2023-07-29T06:02:50;18.00;99.90
7163;DHT22;3623;47.098;15.446;2023-07-29T06:05:18;18.10;99.90
7163;DHT22;3623;47.098;15.446;2023-07-29T06:07:45;18.20;99.90
7163;DHT22;3623;47.098;15.446;2023-07-29T06:10:14;18.10;99.90
7163;DHT22;3623;47.098;15.446;2023-07-29T06:12:44;18.20;99.90
7163;DHT22;3623;47.098;15.446;2023-07-29T06:15:12;18.20;99.90
7163;DHT22;3623;47.098;15.446;2023-07-29T06:17:40;18.30;99.90
7163;DHT22;3623;47.098;15.446;2023-07-29T06:20:08;18.40;99.90
7163;DHT22;3623;47.098;15.446;2023-07-29T06:22:35;18.70;99.90
7163;DHT22;3623;47.098;15.446;2023-07-29T06:25:03;18.80;99.90
7163;DHT22;3623;47.098;15.446;2023-07-29T06:27:31;18.80;99.90
7163;DHT22;3623;47.098;15.446;2023-07-29T06:29:58;18.90;99.90
7163;DHT22;3623;47.098;15.446;2023-07-29T06:32:27;19.00;99.90
7163;DHT22;3623;47.098;15.446;2023-07-29T06:34:54;19.30;99.90
7163;DHT22;3623;47.098;15.446;2023-07-29T06:37:21;19.30;99.90
7163;DHT22;3623;47.098;15.446;2023-07-29T06:39:48;19.40;99.90
7163;DHT22;3623;47.098;15.446;2023-07-29T06:42:15;19.60;99.90
7163;DHT22;3623;47.098;15.446;2023-07-29T06:44:42;19.80;99.90
7163;DHT22;3623;47.098;15.446;2023-07-29T06:47:11;19.90;99.90
7163;DHT22;3623;47.098;15.446;2023-07-29T06:49:40;19.90;99.90
7163;DHT22;3623;47.098;15.446;2023-07-29T06:52:07;19.90;99.90
7163;DHT22;3623;47.098;15.446;2023-07-29T06:54:34;20.00;99.90
7163;DHT22;3623;47.098;15.446;2023-07-29T06:57:02;19.80;99.90
7163;DHT22;3623;47.098;15.446;2023-07-29T06:59:29;19.70;99.90
7163;DHT22;3623;47.098;15.446;2023-07-29T07:01:56;19.70;99.90
7163;DHT22;3623;47.098;15.446;2023-07-29T07:04:23;20.00;99.90
7163;DHT22;3623;47.098;15.446;2023-07-29T07:06:54;19.90;99.90
7163;DHT22;3623;47.098;15.446;2023-07-29T07:09:21;20.30;99.90
7163;DHT22;3623;47.098;15.446;2023-07-29T07:11:49;20.20;99.90
7163;DHT22;3623;47.098;15.446;2023-07-29T07:14:16;20.40;99.90
7163;DHT22;3623;47.098;15.446;2023-07-29T07:16:43;20.50;99.90
7163;DHT22;3623;47.098;15.446;2023-07-29T07:19:11;20.90;99.90
7163;DHT22;3623;47.098;15.446;2023-07-29T07:21:38;21.50;99.90
7163;DHT22;3623;47.098;15.446;2023-07-29T07:24:07;22.00;99.90
7163;DHT22;3623;47.098;15.446;2023-07-29T07:26:34;22.10;99.90
7163;DHT22;3623;47.098;15.446;2023-07-29T07:29:01;22.10;99.90
7163;DHT22;3623;47.098;15.446;2023-07-29T07:31:32;22.10;99.90
7163;DHT22;3623;47.098;15.446;2023-07-29T07:33:59;22.10;99.90
7163;DHT22;3623;47.098;15.446;2023-07-29T07:36:28;22.00;99.90
7163;DHT22;3623;47.098;15.446;2023-07-29T07:38:55;22.00;99.90
7163;DHT22;3623;47.098;15.446;2023-07-29T07:41:24;22.10;99.90
7163;DHT22;3623;47.098;15.446;2023-07-29T07:43:51;22.20;99.90
7163;DHT22;3623;47.098;15.446;2023-07-29T07:46:18;22.80;99.90
7163;DHT22;3623;47.098;15.446;2023-07-29T07:48:46;23.50;99.90
7163;DHT22;3623;47.098;15.446;2023-07-29T07:51:13;24.10;99.90
7163;DHT22;3623;47.098;15.446;2023-07-29T07:53:40;23.90;99.90
7163;DHT22;3623;47.098;15.446;2023-07-29T07:56:07;23.70;99.90
7163;DHT22;3623;47.098;15.446;2023-07-29T07:58:36;23.60;99.90
7163;DHT22;3623;47.098;15.446;2023-07-29T08:01:04;23.60;99.90
7163;DHT22;3623;47.098;15.446;2023-07-29T08:03:32;23.40;99.90
7163;DHT22;3623;47.098;15.446;2023-07-29T08:05:59;23.20;99.90
7163;DHT22;3623;47.098;15.446;2023-07-29T08:08:26;23.10;99.90
7163;DHT22;3623;47.098;15.446;2023-07-29T08:10:54;23.10;99.90
7163;DHT22;3623;47.098;15.446;2023-07-29T08:13:21;23.00;99.90
7163;DHT22;3623;47.098;15.446;2023-07-29T08:15:52;23.20;99.90
7163;DHT22;3623;47.098;15.446;2023-07-29T08:18:19;23.10;99.90
7163;DHT22;3623;47.098;15.446;2023-07-29T08:20:53;23.10;99.90
7163;DHT22;3623;47.098;15.446;2023-07-29T08:23:21;23.20;99.90
7163;DHT22;3623;47.098;15.446;2023-07-29T08:25:53;23.30;99.90
7163;DHT22;3623;47.098;15.446;2023-07-29T08:28:21;23.40;99.90
7163;DHT22;3623;47.098;15.446;2023-07-29T08:30:50;23.30;99.90
7163;DHT22;3623;47.098;15.446;2023-07-29T08:33:17;23.40;99.90
7163;DHT22;3623;47.098;15.446;2023-07-29T08:35:44;23.40;99.90
7163;DHT22;3623;47.098;15.446;2023-07-29T08:38:12;23.60;99.90
7163;DHT22;3623;47.098;15.446;2023-07-29T08:40:50;23.60;99.90
7163;DHT22;3623;47.098;15.446;2023-07-29T08:43:20;23.70;99.90
7163;DHT22;3623;47.098;15.446;2023-07-29T08:45:52;23.70;99.90
7163;DHT22;3623;47.098;15.446;2023-07-29T08:48:23;23.70;99.90
7163;DHT22;3623;47.098;15.446;2023-07-29T08:50:54;23.70;99.90
7163;DHT22;3623;47.098;15.446;2023-07-29T08:53:21;23.70;99.90
7163;DHT22;3623;47.098;15.446;2023-07-29T08:55:49;23.70;99.90
7163;DHT22;3623;47.098;15.446;2023-07-29T08:58:16;23.90;99.90
7163;DHT22;3623;47.098;15.446;2023-07-29T09:00:43;23.80;99.90
7163;DHT22;3623;47.098;15.446;2023-07-29T09:03:12;24.00;99.90
7163;DHT22;3623;47.098;15.446;2023-07-29T09:05:39;24.10;99.90
7163;DHT22;3623;47.098;15.446;2023-07-29T09:08:07;24.20;99.90
7163;DHT22;3623;47.098;15.446;2023-07-29T09:10:35;24.20;99.90
7163;DHT22;3623;47.098;15.446;2023-07-29T09:13:03;24.30;99.90
7163;DHT22;3623;47.098;15.446;2023-07-29T09:15:33;24.40;99.90
7163;DHT22;3623;47.098;15.446;2023-07-29T09:18:09;24.50;99.90
7163;DHT22;3623;47.098;15.446;2023-07-29T09:20:38;24.60;99.90
7163;DHT22;3623;47.098;15.446;2023-07-29T09:23:08;24.80;99.90
7163;DHT22;3623;47.098;15.446;2023-07-29T09:25:36;24.80;99.90
7163;DHT22;3623;47.098;15.446;2023-07-29T09:28:09;24.80;99.90
7163;DHT22;3623;47.098;15.446;2023-07-29T09:30:37;24.90;99.90
7163;DHT22;3623;47.098;15.446;2023-07-29T09:33:04;24.50;99.90
7163;DHT22;3623;47.098;15.446;2023-07-29T09:35:33;24.90;99.90
7163;DHT22;3623;47.098;15.446;2023-07-29T09:38:02;25.00;99.90
7163;DHT22;3623;47.098;15.446;2023-07-29T09:40:34;25.30;99.90
7163;DHT22;3623;47.098;15.446;2023-07-29T09:43:03;25.30;99.90
7163;DHT22;3623;47.098;15.446;2023-07-29T09:45:33;25.40;99.90
7163;DHT22;3623;47.098;15.446;2023-07-29T09:48:02;25.50;99.90
7163;DHT22;3623;47.098;15.446;2023-07-29T09:50:30;24.70;99.90
7163;DHT22;3623;47.098;15.446;2023-07-29T09:52:58;25.50;99.90
7163;DHT22;3623;47.098;15.446;2023-07-29T09:55:26;25.50;99.90
7163;DHT22;3623;47.098;15.446;2023-07-29T09:57:56;25.50;99.90
7163;DHT22;3623;47.098;15.446;2023-07-29T10:00:23;25.50;99.90
7163;DHT22;3623;47.098;15.446;2023-07-29T10:02:51;25.60;99.90
7163;DHT22;3623;47.098;15.446;2023-07-29T10:05:22;25.90;99.90
7163;DHT22;3623;47.098;15.446;2023-07-29T10:07:49;25.60;99.90
7163;DHT22;3623;47.098;15.446;2023-07-29T10:10:17;25.70;99.90
7163;DHT22;3623;47.098;15.446;2023-07-29T10:12:46;25.70;99.90
7163;DHT22;3623;47.098;15.446;2023-07-29T10:15:14;25.90;99.90
7163;DHT22;3623;47.098;15.446;2023-07-29T10:17:41;26.10;99.90
7163;DHT22;3623;47.098;15.446;2023-07-29T10:20:10;26.20;99.90
7163;DHT22;3623;47.098;15.446;2023-07-29T10:22:38;26.30;99.90
7163;DHT22;3623;47.098;15.446;2023-07-29T10:25:09;26.50;99.90
7163;DHT22;3623;47.098;15.446;2023-07-29T10:27:43;27.20;99.90
7163;DHT22;3623;47.098;15.446;2023-07-29T10:30:24;27.90;99.90
7163;DHT22;3623;47.098;15.446;2023-07-29T10:32:52;28.70;99.90
7163;DHT22;3623;47.098;15.446;2023-07-29T10:35:19;29.70;99.90
7163;DHT22;3623;47.098;15.446;2023-07-29T10:37:47;30.40;99.90
7163;DHT22;3623;47.098;15.446;2023-07-29T10:40:16;31.10;99.90
7163;DHT22;3623;47.098;15.446;2023-07-29T10:42:59;31.80;99.90
7163;DHT22;3623;47.098;15.446;2023-07-29T10:45:36;32.10;99.90
7163;DHT22;3623;47.098;15.446;2023-07-29T10:48:06;33.00;99.90
7163;DHT22;3623;47.098;15.446;2023-07-29T10:50:34;33.00;99.90
7163;DHT22;3623;47.098;15.446;2023-07-29T10:53:02;33.80;99.90
7163;DHT22;3623;47.098;15.446;2023-07-29T10:55:31;34.20;99.90
7163;DHT22;3623;47.098;15.446;2023-07-29T10:58:10;34.40;99.90
7163;DHT22;3623;47.098;15.446;2023-07-29T11:00:41;34.50;97.60
7163;DHT22;3623;47.098;15.446;2023-07-29T11:03:09;34.00;99.90
7163;DHT22;3623;47.098;15.446;2023-07-29T11:05:47;34.50;98.10
7163;DHT22;3623;47.098;15.446;2023-07-29T11:08:22;34.30;99.40
7163;DHT22;3623;47.098;15.446;2023-07-29T11:11:03;33.50;99.50
7163;DHT22;3623;47.098;15.446;2023-07-29T11:13:32;32.60;99.90
7163;DHT22;3623;47.098;15.446;2023-07-29T11:16:01;32.70;98.70
7163;DHT22;3623;47.098;15.446;2023-07-29T11:18:31;32.90;97.40
7163;DHT22;3623;47.098;15.446;2023-07-29T11:20:59;32.80;98.20
7163;DHT22;3623;47.098;15.446;2023-07-29T11:23:31;32.90;99.60
7163;DHT22;3623;47.098;15.446;2023-07-29T11:25:59;32.80;96.30
7163;DHT22;3623;47.098;15.446;2023-07-29T11:28:27;33.60;96.30
7163;DHT22;3623;47.098;15.446;2023-07-29T11:30:55;34.00;92.60
7163;DHT22;3623;47.098;15.446;2023-07-29T11:33:25;33.50;92.50
7163;DHT22;3623;47.098;15.446;2023-07-29T11:35:54;34.00;95.00
7163;DHT22;3623;47.098;15.446;2023-07-29T11:38:22;34.50;93.90
7163;DHT22;3623;47.098;15.446;2023-07-29T11:41:00;34.00;93.70
7163;DHT22;3623;47.098;15.446;2023-07-29T11:43:28;33.60;94.80
7163;DHT22;3623;47.098;15.446;2023-07-29T11:45:55;33.90;94.50
7163;DHT22;3623;47.098;15.446;2023-07-29T11:48:31;34.50;95.90
7163;DHT22;3623;47.098;15.446;2023-07-29T11:50:59;34.70;92.20
7163;DHT22;3623;47.098;15.446;2023-07-29T11:53:28;35.30;93.20
7163;DHT22;3623;47.098;15.446;2023-07-29T11:55:55;35.70;93.80
7163;DHT22;3623;47.098;15.446;2023-07-29T11:58:23;35.00;92.30
7163;DHT22;3623;47.098;15.446;2023-07-29T12:00:51;35.50;91.50
7163;DHT22;3623;47.098;15.446;2023-07-29T12:03:19;35.20;91.20
7163;DHT22;3623;47.098;15.446;2023-07-29T12:05:48;35.80;92.90
7163;DHT22;3623;47.098;15.446;2023-07-29T12:08:15;36.00;92.70
7163;DHT22;3623;47.098;15.446;2023-07-29T12:10:42;35.50;92.60
7163;DHT22;3623;47.098;15.446;2023-07-29T12:13:10;35.80;92.10
7163;DHT22;3623;47.098;15.446;2023-07-29T12:15:38;36.30;91.10
7163;DHT22;3623;47.098;15.446;2023-07-29T12:18:06;37.00;90.50
7163;DHT22;3623;47.098;15.446;2023-07-29T12:20:34;36.70;91.30
7163;DHT22;3623;47.098;15.446;2023-07-29T12:23:02;37.40;90.30
7163;DHT22;3623;47.098;15.446;2023-07-29T12:25:31;37.90;91.00
7163;DHT22;3623;47.098;15.446;2023-07-29T12:28:03;38.10;90.50
7163;DHT22;3623;47.098;15.446;2023-07-29T12:30:30;37.50;90.00
7163;DHT22;3623;47.098;15.446;2023-07-29T12:32:57;36.60;91.10
7163;DHT22;3623;47.098;15.446;2023-07-29T12:35:25;35.90;91.20
7163;DHT22;3623;47.098;15.446;2023-07-29T12:38:01;36.00;91.60
7163;DHT22;3623;47.098;15.446;2023-07-29T12:40:29;35.30;92.00
7163;DHT22;3623;47.098;15.446;2023-07-29T12:42:56;35.10;92.30
7163;DHT22;3623;47.098;15.446;2023-07-29T12:45:23;36.20;93.80
7163;DHT22;3623;47.098;15.446;2023-07-29T12:47:52;35.90;91.50
7163;DHT22;3623;47.098;15.446;2023-07-29T12:50:19;34.70;91.10
7163;DHT22;3623;47.098;15.446;2023-07-29T12:52:47;33.40;91.90
7163;DHT22;3623;47.098;15.446;2023-07-29T12:55:16;32.70;95.20
7163;DHT22;3623;47.098;15.446;2023-07-29T12:57:43;32.10;93.60
7163;DHT22;3623;47.098;15.446;2023-07-29T13:00:11;31.60;97.80
7163;DHT22;3623;47.098;15.446;2023-07-29T13:02:39;31.10;96.70
7163;DHT22;3623;47.098;15.446;2023-07-29T13:05:09;30.70;95.60
7163;DHT22;3623;47.098;15.446;2023-07-29T13:07:36;30.30;97.90
7163;DHT22;3623;47.098;15.446;2023-07-29T13:10:04;30.10;99.00
7163;DHT22;3623;47.098;15.446;2023-07-29T13:12:33;29.90;99.70
7163;DHT22;3623;47.098;15.446;2023-07-29T13:15:00;29.10;99.90
7163;DHT22;3623;47.098;15.446;2023-07-29T13:17:27;28.00;99.90
7163;DHT22;3623;47.098;15.446;2023-07-29T13:19:55;27.70;99.90
7163;DHT22;3623;47.098;15.446;2023-07-29T13:22:22;27.60;99.90
7163;DHT22;3623;47.098;15.446;2023-07-29T13:24:49;27.60;99.90
7163;DHT22;3623;47.098;15.446;2023-07-29T13:27:16;27.30;99.90
7163;DHT22;3623;47.098;15.446;2023-07-29T13:29:44;27.00;99.90
7163;DHT22;3623;47.098;15.446;2023-07-29T13:32:12;26.90;99.90
7163;DHT22;3623;47.098;15.446;2023-07-29T13:34:39;26.90;99.90
7163;DHT22;3623;47.098;15.446;2023-07-29T13:37:06;27.30;99.90
7163;DHT22;3623;47.098;15.446;2023-07-29T13:39:34;29.30;99.90
7163;DHT22;3623;47.098;15.446;2023-07-29T13:42:01;31.30;99.90
7163;DHT22;3623;47.098;15.446;2023-07-29T13:44:30;32.90;99.90
7163;DHT22;3623;47.098;15.446;2023-07-29T13:46:59;34.00;99.90
7163;DHT22;3623;47.098;15.446;2023-07-29T13:49:26;34.90;98.40
7163;DHT22;3623;47.098;15.446;2023-07-29T13:51:53;35.30;99.80
7163;DHT22;3623;47.098;15.446;2023-07-29T13:54:20;35.60;97.20
7163;DHT22;3623;47.098;15.446;2023-07-29T13:56:48;36.00;95.70
7163;DHT22;3623;47.098;15.446;2023-07-29T13:59:15;36.40;96.70
7163;DHT22;3623;47.098;15.446;2023-07-29T14:01:42;36.00;96.00
7163;DHT22;3623;47.098;15.446;2023-07-29T14:04:10;35.50;96.40
7163;DHT22;3623;47.098;15.446;2023-07-29T14:06:37;35.10;95.10
7163;DHT22;3623;47.098;15.446;2023-07-29T14:09:04;35.00;96.10
7163;DHT22;3623;47.098;15.446;2023-07-29T14:11:32;35.10;94.70
7163;DHT22;3623;47.098;15.446;2023-07-29T14:13:59;34.70;94.40
7163;DHT22;3623;47.098;15.446;2023-07-29T14:16:26;34.40;95.90
7163;DHT22;3623;47.098;15.446;2023-07-29T14:18:53;34.40;96.40
7163;DHT22;3623;47.098;15.446;2023-07-29T14:21:21;34.00;96.20
7163;DHT22;3623;47.098;15.446;2023-07-29T14:23:49;33.10;96.80
7163;DHT22;3623;47.098;15.446;2023-07-29T14:26:16;32.50;98.10
7163;DHT22;3623;47.098;15.446;2023-07-29T14:28:43;32.10;96.90
7163;DHT22;3623;47.098;15.446;2023-07-29T14:31:10;31.50;97.40
7163;DHT22;3623;47.098;15.446;2023-07-29T14:33:37;30.70;99.40
7163;DHT22;3623;47.098;15.446;2023-07-29T14:36:04;30.20;99.90
7163;DHT22;3623;47.098;15.446;2023-07-29T14:38:34;29.80;99.90
7163;DHT22;3623;47.098;15.446;2023-07-29T14:41:02;29.50;99.90
7163;DHT22;3623;47.098;15.446;2023-07-29T14:43:30;29.50;99.90
7163;DHT22;3623;47.098;15.446;2023-07-29T14:45:57;29.50;99.90
7163;DHT22;3623;47.098;15.446;2023-07-29T14:48:24;29.70;99.90
7163;DHT22;3623;47.098;15.446;2023-07-29T14:50:51;30.30;99.90
7163;DHT22;3623;47.098;15.446;2023-07-29T14:53:18;30.90;99.10
7163;DHT22;3623;47.098;15.446;2023-07-29T14:55:47;30.90;98.10
7163;DHT22;3623;47.098;15.446;2023-07-29T14:58:14;31.00;98.90
7163;DHT22;3623;47.098;15.446;2023-07-29T15:00:42;30.90;98.70
7163;DHT22;3623;47.098;15.446;2023-07-29T15:03:09;30.90;99.10
7163;DHT22;3623;47.098;15.446;2023-07-29T15:05:36;31.10;99.80
7163;DHT22;3623;47.098;15.446;2023-07-29T15:08:04;31.00;98.90
7163;DHT22;3623;47.098;15.446;2023-07-29T15:10:31;31.20;99.90
7163;DHT22;3623;47.098;15.446;2023-07-29T15:12:59;31.30;99.50
7163;DHT22;3623;47.098;15.446;2023-07-29T15:15:26;31.20;99.80
7163;DHT22;3623;47.098;15.446;2023-07-29T15:17:53;30.60;99.60
7163;DHT22;3623;47.098;15.446;2023-07-29T15:20:23;30.30;99.70
7163;DHT22;3623;47.098;15.446;2023-07-29T15:22:51;30.20;99.50
7163;DHT22;3623;47.098;15.446;2023-07-29T15:25:18;30.10;99.30
7163;DHT22;3623;47.098;15.446;2023-07-29T15:27:45;30.10;99.90
7163;DHT22;3623;47.098;15.446;2023-07-29T15:30:14;30.10;99.10
7163;DHT22;3623;47.098;15.446;2023-07-29T15:32:41;30.10;99.40
7163;DHT22;3623;47.098;15.446;2023-07-29T15:35:08;30.10;99.50
7163;DHT22;3623;47.098;15.446;2023-07-29T15:37:35;30.10;99.70
7163;DHT22;3623;47.098;15.446;2023-07-29T15:40:03;30.10;99.70
7163;DHT22;3623;47.098;15.446;2023-07-29T15:42:31;29.20;99.20
7163;DHT22;3623;47.098;15.446;2023-07-29T15:44:58;30.00;99.90
7163;DHT22;3623;47.098;15.446;2023-07-29T15:47:26;30.00;99.90
7163;DHT22;3623;47.098;15.446;2023-07-29T15:49:53;29.90;99.80
7163;DHT22;3623;47.098;15.446;2023-07-29T15:52:20;30.00;99.90